createdAt,value
2023-05-16T00:00:01.336Z,12.01
2023-05-16T00:05:02.859Z,11.98
2023-05-16T00:10:00.614Z,12.19
2023-05-16T00:15:02.234Z,12.77
2023-05-16T00:20:00.585Z,11.46
2023-05-16T00:25:01.155Z,12.48
2023-05-16T00:30:01.988Z,12.63
2023-05-16T00:35:00.673Z,12.67
2023-05-16T00:40:01.772Z,12.02
2023-05-16T00:45:02.742Z,13.06
2023-05-16T00:50:00.661Z,12.47
2023-05-16T00:55:00.696Z,13.44
2023-05-16T01:00:02.448Z,13.17
2023-05-16T01:05:00.578Z,11.28
2023-05-16T01:10:01.310Z,12.46
2023-05-16T01:15:01.259Z,12.42
2023-05-16T01:20:00.680Z,12.90
2023-05-16T01:25:00.601Z,12.55
2023-05-16T01:30:00.905Z,12.93
2023-05-16T01:35:00.625Z,13.95
2023-05-16T01:40:00.638Z,12.85
2023-05-16T01:45:01.408Z,13.72
2023-05-16T01:50:00.614Z,13.03
2023-05-16T01:55:00.670Z,12.76
2023-05-16T02:00:01.027Z,15.87
2023-05-16T02:05:00.638Z,16.16
2023-05-16T02:10:02.735Z,16.37
2023-05-16T02:15:01.757Z,16.00
2023-05-16T02:20:02.911Z,15.13
2023-05-16T02:25:02.698Z,14.80
2023-05-16T02:30:01.329Z,15.83
2023-05-16T02:35:01.361Z,16.07
2023-05-16T02:40:00.769Z,14.90
2023-05-16T02:45:00.698Z,16.01
2023-05-16T02:50:00.802Z,17.16
2023-05-16T02:55:16.868Z,17.34
2023-05-16T03:00:00.424Z,17.21
2023-05-16T03:05:00.524Z,17.64
2023-05-16T03:10:00.731Z,18.29
2023-05-16T03:15:00.496Z,16.30
2023-05-16T03:20:00.360Z,15.25
2023-05-16T03:25:00.821Z,15.84
2023-05-16T03:30:00.371Z,14.22
2023-05-16T03:35:00.651Z,13.73
2023-05-16T03:40:00.633Z,13.32
2023-05-16T03:45:00.762Z,13.28
2023-05-16T03:50:00.388Z,13.35
2023-05-16T03:55:00.532Z,12.30
2023-05-16T04:00:00.391Z,12.05
2023-05-16T04:05:00.435Z,12.82
2023-05-16T04:10:00.754Z,13.64
2023-05-16T04:15:01.279Z,13.10
2023-05-16T04:20:00.403Z,16.88
2023-05-16T04:25:01.626Z,11.92
2023-05-16T04:30:00.425Z,12.59
2023-05-16T04:35:00.485Z,12.69
2023-05-16T04:40:00.652Z,12.24
2023-05-16T04:45:00.543Z,12.55
2023-05-16T04:50:00.498Z,13.12
2023-05-16T04:55:00.697Z,12.09
2023-05-16T05:00:00.401Z,12.80
2023-05-16T05:05:00.702Z,12.87
2023-05-16T05:10:01.400Z,15.35
2023-05-16T05:15:00.418Z,14.96
2023-05-16T05:20:02.903Z,15.02
2023-05-16T05:25:00.784Z,14.01
2023-05-16T05:30:00.717Z,14.90
2023-05-16T05:35:00.518Z,14.02
2023-05-16T05:40:00.789Z,13.58
2023-05-16T05:45:00.736Z,14.37
2023-05-16T05:50:01.586Z,13.34
2023-05-16T05:55:00.585Z,13.16
2023-05-16T06:00:00.664Z,13.19
2023-05-16T06:05:00.580Z,11.45
2023-05-16T06:10:02.006Z,11.79
2023-05-16T06:15:00.433Z,11.21
2023-05-16T06:20:00.505Z,10.65
2023-05-16T06:25:00.636Z,12.05
2023-05-16T06:30:00.754Z,12.11
2023-05-16T06:35:00.552Z,10.99
2023-05-16T06:40:01.133Z,11.98
2023-05-16T06:45:00.396Z,11.92
2023-05-16T06:50:00.459Z,13.50
2023-05-16T06:55:00.691Z,15.29
2023-05-16T07:00:00.913Z,13.38
2023-05-16T07:05:00.388Z,15.36
2023-05-16T07:10:00.828Z,15.33
2023-05-16T07:15:00.765Z,15.05
2023-05-16T07:20:02.868Z,13.36
2023-05-16T07:25:00.544Z,13.04
2023-05-16T07:30:00.538Z,13.01
2023-05-16T07:35:00.513Z,14.06
2023-05-16T07:40:01.786Z,19.96
2023-05-16T07:45:00.685Z,14.01
2023-05-16T07:50:00.778Z,15.93
2023-05-16T07:55:00.472Z,13.45
2023-05-16T08:00:01.240Z,12.94
2023-05-16T08:05:00.418Z,12.10
2023-05-16T08:10:00.634Z,18.18
2023-05-16T08:15:00.887Z,15.10
2023-05-16T08:20:00.519Z,14.37
2023-05-16T08:25:00.679Z,14.17
2023-05-16T08:30:00.941Z,14.58
2023-05-16T08:35:00.439Z,13.95
2023-05-16T08:40:00.731Z,14.00
2023-05-16T08:45:00.630Z,13.10
2023-05-16T08:50:00.484Z,13.68
2023-05-16T08:55:10.394Z,13.42
2023-05-16T09:00:00.417Z,14.00
2023-05-16T09:05:00.370Z,15.48
2023-05-16T09:10:00.728Z,14.16
2023-05-16T09:15:00.395Z,12.09
2023-05-16T09:20:00.518Z,14.16
2023-05-16T09:25:00.692Z,12.50
2023-05-16T09:30:00.437Z,12.62
2023-05-16T09:35:00.391Z,12.18
2023-05-16T09:40:01.330Z,11.81
2023-05-16T09:45:01.529Z,11.95
2023-05-16T09:50:00.850Z,11.84
2023-05-16T09:55:00.601Z,11.09
2023-05-16T10:00:00.419Z,12.07
2023-05-16T10:05:00.448Z,12.16
2023-05-16T10:10:00.797Z,13.42
2023-05-16T10:15:00.408Z,13.33
2023-05-16T10:20:00.537Z,13.69
2023-05-16T10:25:01.317Z,13.33
2023-05-16T10:30:00.402Z,14.23
2023-05-16T10:35:00.522Z,13.95
2023-05-16T10:40:00.722Z,14.72
2023-05-16T10:45:06.047Z,13.15
2023-05-16T10:50:00.407Z,12.65
2023-05-16T10:55:00.542Z,12.39
2023-05-16T11:00:00.397Z,13.41
2023-05-16T11:05:00.449Z,10.64
2023-05-16T11:10:00.793Z,9.70
2023-05-16T11:15:00.469Z,10.88
2023-05-16T11:20:00.544Z,11.05
2023-05-16T11:25:00.765Z,8.79
2023-05-16T11:30:02.866Z,10.23
2023-05-16T11:35:00.500Z,11.10
2023-05-16T11:40:00.869Z,11.89
2023-05-16T11:45:00.622Z,14.97
2023-05-16T11:50:00.392Z,16.96
2023-05-16T11:55:00.845Z,17.31
2023-05-16T12:00:01.108Z,17.16
2023-05-16T12:05:00.467Z,17.10
2023-05-16T12:10:00.936Z,18.18
2023-05-16T12:15:00.424Z,19.89
2023-05-16T12:20:00.506Z,24.07
2023-05-16T12:25:00.791Z,24.14
2023-05-16T12:30:00.535Z,26.95
2023-05-16T12:35:00.418Z,27.99
2023-05-16T12:40:01.481Z,27.72
2023-05-16T12:45:00.417Z,27.38
2023-05-16T12:50:00.656Z,26.29
2023-05-16T12:55:00.593Z,27.89
2023-05-16T13:00:00.513Z,26.55
2023-05-16T13:05:00.430Z,23.98
2023-05-16T13:10:00.584Z,24.17
2023-05-16T13:15:00.411Z,24.59
2023-05-16T13:20:00.440Z,25.15
2023-05-16T13:25:00.686Z,25.61
2023-05-16T13:30:00.404Z,26.82
2023-05-16T13:35:00.446Z,26.81
2023-05-16T13:40:00.811Z,29.16
2023-05-16T13:45:00.927Z,32.17
2023-05-16T13:50:00.400Z,29.99
2023-05-16T13:55:00.794Z,33.43
2023-05-16T14:05:00.681Z,30.29
2023-05-16T14:10:00.704Z,29.63
2023-05-16T14:15:00.669Z,31.24
2023-05-16T14:20:00.388Z,29.69
2023-05-16T14:25:00.759Z,30.51
2023-05-16T14:30:01.314Z,27.49
2023-05-16T14:35:00.380Z,28.85
2023-05-16T14:40:00.666Z,27.85
2023-05-16T14:45:00.374Z,26.26
2023-05-16T14:50:03.657Z,27.75
2023-05-16T14:55:00.490Z,25.29
2023-05-16T15:00:00.516Z,28.87
2023-05-16T15:05:00.632Z,22.21
2023-05-16T15:10:00.815Z,21.89
2023-05-16T15:15:00.436Z,20.27
2023-05-16T15:20:00.643Z,21.60
2023-05-16T15:25:00.524Z,20.30
2023-05-16T15:30:00.768Z,24.21
2023-05-16T15:35:00.689Z,19.08
2023-05-16T15:40:00.680Z,17.62
2023-05-16T15:45:00.502Z,19.55
2023-05-16T15:50:00.534Z,19.35
2023-05-16T15:55:00.786Z,20.31
2023-05-16T16:00:00.566Z,18.86
2023-05-16T16:05:00.386Z,17.23
2023-05-16T16:10:00.777Z,16.65
2023-05-16T16:15:00.533Z,15.52
2023-05-16T16:20:01.712Z,15.86
2023-05-16T16:25:00.596Z,14.75
2023-05-16T16:30:00.523Z,13.35
2023-05-16T16:35:00.451Z,13.64
2023-05-16T16:40:00.666Z,14.22
2023-05-16T16:45:00.390Z,12.85
2023-05-16T16:50:00.712Z,11.38
2023-05-16T16:55:00.581Z,13.62
2023-05-16T17:00:00.569Z,12.02
2023-05-16T17:05:00.432Z,9.23
2023-05-16T17:10:00.845Z,9.93
2023-05-16T17:15:00.726Z,7.98
2023-05-16T17:20:00.484Z,8.66
2023-05-16T17:25:00.657Z,7.53
2023-05-16T17:30:00.463Z,7.91
2023-05-16T17:35:00.420Z,8.47
2023-05-16T17:40:00.766Z,6.40
2023-05-16T17:45:00.397Z,6.99
2023-05-16T17:50:00.470Z,7.27
2023-05-16T17:55:00.663Z,5.99
2023-05-16T18:00:00.395Z,7.38
2023-05-16T18:05:00.541Z,8.56
2023-05-16T18:10:04.640Z,7.93
2023-05-16T18:15:00.444Z,8.17
2023-05-16T18:20:00.781Z,9.07
2023-05-16T18:25:00.700Z,8.05
2023-05-16T18:30:00.522Z,8.29
2023-05-16T18:35:00.472Z,8.29
2023-05-16T18:40:00.821Z,8.52
2023-05-16T18:45:00.425Z,7.60
2023-05-16T18:50:00.552Z,7.27
2023-05-16T18:55:00.632Z,7.77
2023-05-16T19:00:00.579Z,7.39
2023-05-16T19:05:01.626Z,6.77
2023-05-16T19:10:02.867Z,5.41
2023-05-16T19:15:01.315Z,5.15
2023-05-16T19:20:00.633Z,4.98
2023-05-16T19:25:00.729Z,4.86
2023-05-16T19:30:00.391Z,5.29
2023-05-16T19:35:00.622Z,4.79
2023-05-16T19:40:00.753Z,4.47
2023-05-16T19:45:01.022Z,4.56
2023-05-16T19:50:00.404Z,4.15
2023-05-16T19:55:00.664Z,5.04
2023-05-16T20:00:03.050Z,4.13
2023-05-16T20:05:00.554Z,4.24
2023-05-16T20:10:00.721Z,3.69
2023-05-16T20:15:00.392Z,4.46
2023-05-16T20:20:00.624Z,4.63
2023-05-16T20:25:01.870Z,4.48
2023-05-16T20:30:00.447Z,4.73
2023-05-16T20:35:00.559Z,4.64
2023-05-16T20:40:02.539Z,5.00
2023-05-16T20:45:00.992Z,3.67
2023-05-16T20:50:00.486Z,3.31
2023-05-16T20:55:00.644Z,3.08
2023-05-16T21:00:00.475Z,3.55
2023-05-16T21:05:14.500Z,3.49
2023-05-16T21:10:00.792Z,3.16
2023-05-16T21:15:00.440Z,2.94
2023-05-16T21:20:00.566Z,3.53
2023-05-16T21:25:00.684Z,3.02
2023-05-16T21:30:00.431Z,3.18
2023-05-16T21:35:01.335Z,2.98
2023-05-16T21:40:01.225Z,3.25
2023-05-16T21:45:00.519Z,3.20
2023-05-16T21:50:00.530Z,2.89
2023-05-16T21:55:00.437Z,3.02
2023-05-16T22:00:01.331Z,3.28
2023-05-16T22:05:00.505Z,3.24
2023-05-16T22:10:00.647Z,3.19
2023-05-16T22:15:00.552Z,2.89
2023-05-16T22:20:00.521Z,2.73
2023-05-16T22:25:00.783Z,2.31
2023-05-16T22:30:00.503Z,2.36
2023-05-16T22:35:00.448Z,2.48
2023-05-16T22:40:00.933Z,2.44
2023-05-16T22:45:00.503Z,2.23
2023-05-16T22:50:01.036Z,2.00
2023-05-16T22:55:00.846Z,2.20
2023-05-16T23:00:00.547Z,2.15
2023-05-16T23:05:00.509Z,2.66
2023-05-16T23:10:00.865Z,1.86
2023-05-16T23:15:00.400Z,2.05
2023-05-16T23:20:00.668Z,2.21
2023-05-16T23:25:00.871Z,1.74
2023-05-16T23:30:00.410Z,1.86
2023-05-16T23:35:00.492Z,1.92
2023-05-16T23:40:00.975Z,1.73
2023-05-16T23:45:00.425Z,1.89
2023-05-16T23:55:00.683Z,1.66
